sensor_id;sensor_type;location;lat;lon;timestamp;pressure;altitude;pressure_sealevel;temperature;humidity
70902;BME280;58548;47.210;8.618;2023-12-14T00:01:17;93139.84;;;15.57;38.83
70902;BME280;58548;47.210;8.618;2023-12-14T00:03:43;93020.03;;;14.82;38.70
70902;BME280;58548;47.210;8.618;2023-12-14T00:06:13;93078.25;;;15.13;38.85
70902;BME280;58548;47.210;8.618;2023-12-14T00:08:42;93144.81;;;15.53;38.76
70902;BME280;58548;47.210;8.618;2023-12-14T00:11:13;93145.59;;;15.53;38.90
70902;BME280;58548;47.210;8.618;2023-12-14T00:13:39;93034.19;;;14.81;38.73
70902;BME280;58548;47.210;8.618;2023-12-14T00:16:06;93015.53;;;14.66;39.00
70902;BME280;58548;47.210;8.618;2023-12-14T00:18:32;93046.84;;;14.84;38.83
70902;BME280;58548;47.210;8.618;2023-12-14T00:21:02;93110.72;;;15.41;38.83
70902;BME280;58548;47.210;8.618;2023-12-14T00:23:31;93151.72;;;15.59;39.05
70902;BME280;58548;47.210;8.618;2023-12-14T00:25:57;93157.72;;;15.55;38.93
70902;BME280;58548;47.210;8.618;2023-12-14T00:28:23;93159.81;;;15.52;38.76
70902;BME280;58548;47.210;8.618;2023-12-14T00:30:49;93068.28;;;14.93;39.05
70902;BME280;58548;47.210;8.618;2023-12-14T00:33:17;92978.78;;;14.31;38.94
70902;BME280;58548;47.210;8.618;2023-12-14T00:35:43;93174.06;;;15.57;38.87
70902;BME280;58548;47.210;8.618;2023-12-14T00:38:09;93098.19;;;15.09;38.79
70902;BME280;58548;47.210;8.618;2023-12-14T00:40:37;93064.69;;;14.82;38.89
70902;BME280;58548;47.210;8.618;2023-12-14T00:43:03;93080.03;;;14.90;38.72
70902;BME280;58548;47.210;8.618;2023-12-14T00:45:31;93078.44;;;14.89;38.51
70902;BME280;58548;47.210;8.618;2023-12-14T00:48:02;93089.06;;;14.95;38.24
70902;BME280;58548;47.210;8.618;2023-12-14T00:50:28;93168.13;;;15.44;38.63
70902;BME280;58548;47.210;8.618;2023-12-14T00:52:56;93191.72;;;15.56;38.35
70902;BME280;58548;47.210;8.618;2023-12-14T00:55:22;93189.84;;;15.57;38.36
70902;BME280;58548;47.210;8.618;2023-12-14T00:57:50;93078.88;;;14.81;38.45
70902;BME280;58548;47.210;8.618;2023-12-14T01:00:19;93195.84;;;15.52;38.61
70902;BME280;58548;47.210;8.618;2023-12-14T01:02:47;93197.69;;;15.51;38.43
70902;BME280;58548;47.210;8.618;2023-12-14T01:05:16;93192.84;;;15.43;38.63
70902;BME280;58548;47.210;8.618;2023-12-14T01:07:44;93208.84;;;15.59;38.24
70902;BME280;58548;47.210;8.618;2023-12-14T01:10:10;93207.72;;;15.55;38.58
70902;BME280;58548;47.210;8.618;2023-12-14T01:12:40;93025.50;;;14.29;38.54
70902;BME280;58548;47.210;8.618;2023-12-14T01:15:07;93100.28;;;14.73;38.91
70902;BME280;58548;47.210;8.618;2023-12-14T01:17:33;93114.38;;;14.84;38.61
70902;BME280;58548;47.210;8.618;2023-12-14T01:20:08;93206.38;;;15.35;38.73
70902;BME280;58548;47.210;8.618;2023-12-14T01:22:37;93203.84;;;15.23;38.52
70902;BME280;58548;47.210;8.618;2023-12-14T01:25:06;93124.06;;;14.66;38.98
70902;BME280;58548;47.210;8.618;2023-12-14T01:27:34;93142.34;;;14.73;39.11
70902;BME280;58548;47.210;8.618;2023-12-14T01:30:02;93138.97;;;14.60;39.19
70902;BME280;58548;47.210;8.618;2023-12-14T01:32:29;93234.22;;;15.14;39.16
70902;BME280;58548;47.210;8.618;2023-12-14T01:34:55;93254.69;;;15.12;39.21
70902;BME280;58548;47.210;8.618;2023-12-14T01:37:23;93157.06;;;14.45;39.47
70902;BME280;58548;47.210;8.618;2023-12-14T01:39:52;93256.91;;;15.03;39.41
70902;BME280;58548;47.210;8.618;2023-12-14T01:42:18;93273.16;;;15.00;39.65
70902;BME280;58548;47.210;8.618;2023-12-14T01:44:43;93275.50;;;14.84;39.12
70902;BME280;58548;47.210;8.618;2023-12-14T01:47:09;93139.25;;;13.89;38.87
70902;BME280;58548;47.210;8.618;2023-12-14T01:49:35;93273.19;;;14.71;39.11
70902;BME280;58548;47.210;8.618;2023-12-14T01:52:01;93163.19;;;14.05;39.47
70902;BME280;58548;47.210;8.618;2023-12-14T01:54:29;93172.75;;;14.11;39.48
70902;BME280;58548;47.210;8.618;2023-12-14T01:56:56;93185.53;;;14.19;39.68
70902;BME280;58548;47.210;8.618;2023-12-14T01:59:24;93169.88;;;14.12;39.47
70902;BME280;58548;47.210;8.618;2023-12-14T02:01:55;93207.94;;;14.39;39.31
70902;BME280;58548;47.210;8.618;2023-12-14T02:04:24;93179.88;;;14.27;39.54
70902;BME280;58548;47.210;8.618;2023-12-14T02:06:51;93270.81;;;14.86;39.54
70902;BME280;58548;47.210;8.618;2023-12-14T02:09:17;93092.66;;;13.67;39.49
70902;BME280;58548;47.210;8.618;2023-12-14T02:11:45;93288.84;;;14.95;39.57
70902;BME280;58548;47.210;8.618;2023-12-14T02:14:13;93258.44;;;14.70;39.42
70902;BME280;58548;47.210;8.618;2023-12-14T02:16:41;93287.34;;;14.99;39.33
70902;BME280;58548;47.210;8.618;2023-12-14T02:19:07;93194.81;;;14.39;39.13
70902;BME280;58548;47.210;8.618;2023-12-14T02:21:33;93290.34;;;14.90;39.55
70902;BME280;58548;47.210;8.618;2023-12-14T02:24:04;93104.19;;;13.66;39.75
70902;BME280;58548;47.210;8.618;2023-12-14T02:26:30;93300.84;;;14.90;39.54
70902;BME280;58548;47.210;8.618;2023-12-14T02:28:56;93309.59;;;14.79;39.59
70902;BME280;58548;47.210;8.618;2023-12-14T02:31:24;93314.66;;;14.69;39.83
70902;BME280;58548;47.210;8.618;2023-12-14T02:33:52;93305.59;;;14.36;39.62
70902;BME280;58548;47.210;8.618;2023-12-14T02:36:18;93229.22;;;13.72;39.98
70902;BME280;58548;47.210;8.618;2023-12-14T02:38:44;93193.03;;;13.39;39.88
70902;BME280;58548;47.210;8.618;2023-12-14T02:41:10;93244.72;;;13.62;40.52
70902;BME280;58548;47.210;8.618;2023-12-14T02:43:39;93311.66;;;14.00;40.45
70902;BME280;58548;47.210;8.618;2023-12-14T02:46:06;93344.44;;;14.10;40.40
70902;BME280;58548;47.210;8.618;2023-12-14T02:48:34;93341.34;;;14.13;40.45
70902;BME280;58548;47.210;8.618;2023-12-14T02:51:03;93347.31;;;14.08;40.20
70902;BME280;58548;47.210;8.618;2023-12-14T02:53:31;93357.00;;;14.08;40.48
70902;BME280;58548;47.210;8.618;2023-12-14T02:56:03;93320.25;;;13.96;40.72
70902;BME280;58548;47.210;8.618;2023-12-14T02:58:34;93334.25;;;14.13;40.47
70902;BME280;58548;47.210;8.618;2023-12-14T03:01:00;93243.13;;;13.61;40.20
70902;BME280;58548;47.210;8.618;2023-12-14T03:03:30;93262.38;;;13.79;39.99
70902;BME280;58548;47.210;8.618;2023-12-14T03:05:59;93349.22;;;14.37;40.04
70902;BME280;58548;47.210;8.618;2023-12-14T03:08:25;93233.78;;;13.65;39.95
70902;BME280;58548;47.210;8.618;2023-12-14T03:10:51;93362.22;;;14.43;39.47
70902;BME280;58548;47.210;8.618;2023-12-14T03:13:16;93281.19;;;13.99;39.61
70902;BME280;58548;47.210;8.618;2023-12-14T03:15:43;93370.06;;;14.55;39.60
70902;BME280;58548;47.210;8.618;2023-12-14T03:18:11;93365.97;;;14.59;39.14
70902;BME280;58548;47.210;8.618;2023-12-14T03:20:39;93377.03;;;14.61;39.26
70902;BME280;58548;47.210;8.618;2023-12-14T03:23:05;93369.16;;;14.61;39.13
70902;BME280;58548;47.210;8.618;2023-12-14T03:25:31;93283.81;;;13.99;39.18
70902;BME280;58548;47.210;8.618;2023-12-14T03:27:59;93394.31;;;14.69;38.94
70902;BME280;58548;47.210;8.618;2023-12-14T03:30:27;93299.09;;;14.14;38.99
70902;BME280;58548;47.210;8.618;2023-12-14T03:32:56;93277.91;;;13.92;38.86
70902;BME280;58548;47.210;8.618;2023-12-14T03:35:22;93387.63;;;14.67;38.90
70902;BME280;58548;47.210;8.618;2023-12-14T03:37:52;93391.44;;;14.71;38.77
70902;BME280;58548;47.210;8.618;2023-12-14T03:40:21;93392.25;;;14.71;38.71
70902;BME280;58548;47.210;8.618;2023-12-14T03:42:47;93394.31;;;14.69;39.05
70902;BME280;58548;47.210;8.618;2023-12-14T03:45:15;93202.19;;;13.48;39.30
70902;BME280;58548;47.210;8.618;2023-12-14T03:47:43;93294.44;;;14.05;39.29
70902;BME280;58548;47.210;8.618;2023-12-14T03:50:11;93412.09;;;14.79;39.45
70902;BME280;58548;47.210;8.618;2023-12-14T03:52:40;93295.00;;;14.07;39.24
70902;BME280;58548;47.210;8.618;2023-12-14T03:55:06;93325.47;;;14.31;39.24
70902;BME280;58548;47.210;8.618;2023-12-14T03:57:32;93385.81;;;14.67;39.23
70902;BME280;58548;47.210;8.618;2023-12-14T04:00:01;93415.97;;;14.88;39.22
70902;BME280;58548;47.210;8.618;2023-12-14T04:02:27;93316.31;;;14.22;39.27
70902;BME280;58548;47.210;8.618;2023-12-14T04:04:53;93403.66;;;14.77;38.95
70902;BME280;58548;47.210;8.618;2023-12-14T04:07:23;93421.78;;;14.90;39.43
70902;BME280;58548;47.210;8.618;2023-12-14T04:09:51;93405.81;;;14.80;39.47
70902;BME280;58548;47.210;8.618;2023-12-14T04:12:19;93430.56;;;14.96;39.44
70902;BME280;58548;47.210;8.618;2023-12-14T04:14:46;93334.94;;;14.32;39.53
70902;BME280;58548;47.210;8.618;2023-12-14T04:17:12;93437.09;;;14.93;39.26
70902;BME280;58548;47.210;8.618;2023-12-14T04:19:40;93252.69;;;13.79;39.08
70902;BME280;58548;47.210;8.618;2023-12-14T04:22:05;93453.09;;;15.04;38.95
70902;BME280;58548;47.210;8.618;2023-12-14T04:24:34;93447.47;;;15.00;39.16
70902;BME280;58548;47.210;8.618;2023-12-14T04:27:04;93454.19;;;15.08;38.98
70902;BME280;58548;47.210;8.618;2023-12-14T04:29:37;93455.94;;;15.02;39.16
70902;BME280;58548;47.210;8.618;2023-12-14T04:32:04;93358.00;;;14.42;39.03
70902;BME280;58548;47.210;8.618;2023-12-14T04:34:30;93467.00;;;15.16;38.79
70902;BME280;58548;47.210;8.618;2023-12-14T04:36:56;93429.78;;;14.96;38.49
70902;BME280;58548;47.210;8.618;2023-12-14T04:39:25;93390.19;;;14.61;38.73
70902;BME280;58548;47.210;8.618;2023-12-14T04:41:54;93277.47;;;13.83;38.83
70902;BME280;58548;47.210;8.618;2023-12-14T04:44:22;93479.38;;;15.04;38.80
70902;BME280;58548;47.210;8.618;2023-12-14T04:46:53;93481.78;;;15.05;39.11
70902;BME280;58548;47.210;8.618;2023-12-14T04:49:21;93486.91;;;15.12;39.17
70902;BME280;58548;47.210;8.618;2023-12-14T04:51:47;93385.03;;;14.43;39.08
70902;BME280;58548;47.210;8.618;2023-12-14T04:54:15;93476.66;;;14.99;38.87
70902;BME280;58548;47.210;8.618;2023-12-14T04:56:47;93476.28;;;14.95;39.40
70902;BME280;58548;47.210;8.618;2023-12-14T04:59:15;93491.28;;;14.95;39.04
70902;BME280;58548;47.210;8.618;2023-12-14T05:01:43;93500.19;;;14.93;39.26
70902;BME280;58548;47.210;8.618;2023-12-14T05:04:10;93520.97;;;15.07;39.28
70902;BME280;58548;47.210;8.618;2023-12-14T05:06:38;93520.41;;;15.05;39.32
70902;BME280;58548;47.210;8.618;2023-12-14T05:09:06;93521.47;;;15.04;39.05
70902;BME280;58548;47.210;8.618;2023-12-14T05:11:32;93506.38;;;14.87;38.90
70902;BME280;58548;47.210;8.618;2023-12-14T05:13:58;93444.56;;;14.37;39.47
70902;BME280;58548;47.210;8.618;2023-12-14T05:16:26;93529.44;;;14.85;39.48
70902;BME280;58548;47.210;8.618;2023-12-14T05:18:53;93500.63;;;14.67;39.38
70902;BME280;58548;47.210;8.618;2023-12-14T05:21:21;93547.84;;;14.97;39.47
70902;BME280;58548;47.210;8.618;2023-12-14T05:23:47;93553.00;;;15.04;39.51
70902;BME280;58548;47.210;8.618;2023-12-14T05:26:16;93438.97;;;14.33;39.36
70902;BME280;58548;47.210;8.618;2023-12-14T05:28:44;93535.16;;;14.94;39.38
70902;BME280;58548;47.210;8.618;2023-12-14T05:31:10;93417.50;;;14.13;39.61
70902;BME280;58548;47.210;8.618;2023-12-14T05:33:39;93566.50;;;14.96;39.51
70902;BME280;58548;47.210;8.618;2023-12-14T05:36:06;93576.09;;;15.02;39.52
70902;BME280;58548;47.210;8.618;2023-12-14T05:38:40;93466.13;;;14.27;39.58
70902;BME280;58548;47.210;8.618;2023-12-14T05:41:09;93582.41;;;15.01;39.46
70902;BME280;58548;47.210;8.618;2023-12-14T05:43:36;93592.78;;;14.96;39.26
70902;BME280;58548;47.210;8.618;2023-12-14T05:46:02;93592.09;;;14.88;39.47
70902;BME280;58548;47.210;8.618;2023-12-14T05:48:31;93571.75;;;14.72;39.85
70902;BME280;58548;47.210;8.618;2023-12-14T05:51:00;93500.97;;;14.23;39.70
70902;BME280;58548;47.210;8.618;2023-12-14T05:53:25;93594.50;;;14.90;39.79
70902;BME280;58548;47.210;8.618;2023-12-14T05:55:51;93491.69;;;14.20;39.89
70902;BME280;58548;47.210;8.618;2023-12-14T05:58:17;93516.94;;;14.33;39.82
70902;BME280;58548;47.210;8.618;2023-12-14T06:00:44;93595.75;;;14.87;39.62
70902;BME280;58548;47.210;8.618;2023-12-14T06:03:12;93588.31;;;14.72;39.62
70902;BME280;58548;47.210;8.618;2023-12-14T06:05:41;93606.94;;;14.83;39.65
70902;BME280;58548;47.210;8.618;2023-12-14T06:08:07;93629.25;;;14.92;39.72
70902;BME280;58548;47.210;8.618;2023-12-14T06:10:33;93631.66;;;14.93;39.53
70902;BME280;58548;47.210;8.618;2023-12-14T06:12:59;93633.13;;;14.89;39.52
70902;BME280;58548;47.210;8.618;2023-12-14T06:15:25;93643.06;;;14.87;39.24
70902;BME280;58548;47.210;8.618;2023-12-14T06:17:53;93541.38;;;14.22;39.62
70902;BME280;58548;47.210;8.618;2023-12-14T06:20:21;93548.78;;;14.13;39.47
70902;BME280;58548;47.210;8.618;2023-12-14T06:22:48;93578.63;;;14.30;39.62
70902;BME280;58548;47.210;8.618;2023-12-14T06:25:16;93673.94;;;14.80;40.08
70902;BME280;58548;47.210;8.618;2023-12-14T06:27:42;93676.56;;;14.80;39.85
70902;BME280;58548;47.210;8.618;2023-12-14T06:30:09;93649.06;;;14.64;39.70
70902;BME280;58548;47.210;8.618;2023-12-14T06:32:38;93683.97;;;14.83;40.15
70902;BME280;58548;47.210;8.618;2023-12-14T06:35:05;93689.59;;;14.87;39.71
70902;BME280;58548;47.210;8.618;2023-12-14T06:37:31;93585.56;;;14.25;39.80
70902;BME280;58548;47.210;8.618;2023-12-14T06:39:59;93576.63;;;14.14;39.64
70902;BME280;58548;47.210;8.618;2023-12-14T06:42:27;93706.41;;;14.98;39.59
70902;BME280;58548;47.210;8.618;2023-12-14T06:44:53;93645.28;;;14.60;39.31
70902;BME280;58548;47.210;8.618;2023-12-14T06:47:22;93604.56;;;14.39;39.45
70902;BME280;58548;47.210;8.618;2023-12-14T06:49:50;93700.59;;;14.96;39.18
70902;BME280;58548;47.210;8.618;2023-12-14T06:52:16;93720.25;;;15.05;39.45
70902;BME280;58548;47.210;8.618;2023-12-14T06:54:44;93733.91;;;15.14;39.62
70902;BME280;58548;47.210;8.618;2023-12-14T06:57:10;93731.59;;;15.17;39.45
70902;BME280;58548;47.210;8.618;2023-12-14T06:59:36;93629.94;;;14.45;39.36
70902;BME280;58548;47.210;8.618;2023-12-14T07:02:05;93535.00;;;13.87;39.53
70902;BME280;58548;47.210;8.618;2023-12-14T07:04:33;93683.97;;;14.83;39.03
70902;BME280;58548;47.210;8.618;2023-12-14T07:06:59;93715.13;;;15.10;39.51
70902;BME280;58548;47.210;8.618;2023-12-14T07:09:27;93635.44;;;14.55;39.19
70902;BME280;58548;47.210;8.618;2023-12-14T07:11:54;93742.56;;;15.14;39.25
70902;BME280;58548;47.210;8.618;2023-12-14T07:14:22;93673.84;;;14.56;39.67
70902;BME280;58548;47.210;8.618;2023-12-14T07:16:50;93749.66;;;15.02;39.57
70902;BME280;58548;47.210;8.618;2023-12-14T07:19:16;93750.56;;;15.07;39.74
70902;BME280;58548;47.210;8.618;2023-12-14T07:21:42;93640.88;;;14.42;39.02
70902;BME280;58548;47.210;8.618;2023-12-14T07:24:08;93695.94;;;14.67;39.35
70902;BME280;58548;47.210;8.618;2023-12-14T07:26:34;93661.25;;;14.46;39.64
70902;BME280;58548;47.210;8.618;2023-12-14T07:29:00;93639.38;;;14.34;39.63
70902;BME280;58548;47.210;8.618;2023-12-14T07:31:31;93768.53;;;15.11;39.19
70902;BME280;58548;47.210;8.618;2023-12-14T07:33:56;93770.13;;;15.12;39.49
70902;BME280;58548;47.210;8.618;2023-12-14T07:36:22;93673.22;;;14.42;39.37
70902;BME280;58548;47.210;8.618;2023-12-14T07:38:50;93671.84;;;14.40;39.07
70902;BME280;58548;47.210;8.618;2023-12-14T07:41:19;93782.00;;;15.02;39.33
70902;BME280;58548;47.210;8.618;2023-12-14T07:43:45;93625.81;;;14.07;39.25
70902;BME280;58548;47.210;8.618;2023-12-14T07:46:14;93789.19;;;15.07;39.35
70902;BME280;58548;47.210;8.618;2023-12-14T07:48:42;93800.41;;;15.02;39.23
70902;BME280;58548;47.210;8.618;2023-12-14T07:51:10;93798.59;;;15.03;39.46
70902;BME280;58548;47.210;8.618;2023-12-14T07:53:39;93746.81;;;14.73;39.15
70902;BME280;58548;47.210;8.618;2023-12-14T07:56:10;93801.56;;;15.06;39.21
70902;BME280;58548;47.210;8.618;2023-12-14T07:58:36;93698.13;;;14.40;39.27
70902;BME280;58548;47.210;8.618;2023-12-14T08:01:02;93781.47;;;14.82;39.12
70902;BME280;58548;47.210;8.618;2023-12-14T08:03:28;93818.03;;;15.02;39.36
70902;BME280;58548;47.210;8.618;2023-12-14T08:05:54;93819.78;;;14.89;39.48
70902;BME280;58548;47.210;8.618;2023-12-14T08:08:24;93829.63;;;14.94;38.71
70902;BME280;58548;47.210;8.618;2023-12-14T08:10:50;93837.66;;;14.99;38.81
70902;BME280;58548;47.210;8.618;2023-12-14T08:13:16;93835.25;;;14.98;39.02
70902;BME280;58548;47.210;8.618;2023-12-14T08:15:42;93837.00;;;15.04;38.96
70902;BME280;58548;47.210;8.618;2023-12-14T08:18:10;93842.81;;;15.06;39.22
70902;BME280;58548;47.210;8.618;2023-12-14T08:20:36;93731.63;;;14.26;39.45
70902;BME280;58548;47.210;8.618;2023-12-14T08:23:07;93650.06;;;13.71;39.35
70902;BME280;58548;47.210;8.618;2023-12-14T08:25:37;93738.84;;;14.30;38.60
70902;BME280;58548;47.210;8.618;2023-12-14T08:28:03;93856.88;;;15.00;39.17
70902;BME280;58548;47.210;8.618;2023-12-14T08:30:29;93866.00;;;14.97;39.47
70902;BME280;58548;47.210;8.618;2023-12-14T08:32:58;93866.97;;;15.03;38.88
70902;BME280;58548;47.210;8.618;2023-12-14T08:35:26;93864.69;;;15.06;38.82
70902;BME280;58548;47.210;8.618;2023-12-14T08:37:52;93770.63;;;14.41;39.00
70902;BME280;58548;47.210;8.618;2023-12-14T08:40:18;93877.75;;;15.13;39.17
70902;BME280;58548;47.210;8.618;2023-12-14T08:42:49;93885.19;;;15.16;38.88
70902;BME280;58548;47.210;8.618;2023-12-14T08:45:15;93891.03;;;15.18;38.95
70902;BME280;58548;47.210;8.618;2023-12-14T08:47:41;93855.72;;;14.96;38.46
70902;BME280;58548;47.210;8.618;2023-12-14T08:50:08;93789.16;;;14.46;38.83
70902;BME280;58548;47.210;8.618;2023-12-14T08:52:34;93772.84;;;14.25;38.72
70902;BME280;58548;47.210;8.618;2023-12-14T08:55:00;93806.75;;;14.45;39.02
70902;BME280;58548;47.210;8.618;2023-12-14T08:57:28;93790.41;;;14.43;38.83
70902;BME280;58548;47.210;8.618;2023-12-14T08:59:53;93854.56;;;14.91;38.97
70902;BME280;58548;47.210;8.618;2023-12-14T09:02:22;93918.91;;;15.38;38.72
70902;BME280;58548;47.210;8.618;2023-12-14T09:04:48;93909.50;;;15.30;38.39
70902;BME280;58548;47.210;8.618;2023-12-14T09:07:14;93936.38;;;15.32;38.70
70902;BME280;58548;47.210;8.618;2023-12-14T09:09:40;93943.56;;;15.25;38.82
70902;BME280;58548;47.210;8.618;2023-12-14T09:12:06;93954.16;;;15.18;38.36
70902;BME280;58548;47.210;8.618;2023-12-14T09:14:34;93917.94;;;15.02;38.43
70902;BME280;58548;47.210;8.618;2023-12-14T09:17:00;93957.28;;;15.27;38.38
70902;BME280;58548;47.210;8.618;2023-12-14T09:19:29;93864.91;;;14.68;38.72
70902;BME280;58548;47.210;8.618;2023-12-14T09:22:00;93857.94;;;14.61;38.42
70902;BME280;58548;47.210;8.618;2023-12-14T09:24:26;93867.97;;;14.71;38.24
70902;BME280;58548;47.210;8.618;2023-12-14T09:26:54;93958.22;;;15.33;38.42
70902;BME280;58548;47.210;8.618;2023-12-14T09:29:22;93989.84;;;15.45;38.25
70902;BME280;58548;47.210;8.618;2023-12-14T09:31:50;93890.72;;;14.77;38.73
70902;BME280;58548;47.210;8.618;2023-12-14T09:34:21;93997.53;;;15.46;38.53
70902;BME280;58548;47.210;8.618;2023-12-14T09:36:47;93897.44;;;14.92;38.31
70902;BME280;58548;47.210;8.618;2023-12-14T09:39:16;94014.97;;;15.59;38.11
70902;BME280;58548;47.210;8.618;2023-12-14T09:41:41;93905.09;;;14.93;38.35
70902;BME280;58548;47.210;8.618;2023-12-14T09:44:12;93987.31;;;15.38;38.04
70902;BME280;58548;47.210;8.618;2023-12-14T09:46:41;93983.66;;;15.39;38.14
70902;BME280;58548;47.210;8.618;2023-12-14T09:49:17;93914.59;;;14.95;38.06
70902;BME280;58548;47.210;8.618;2023-12-14T09:51:44;94026.81;;;15.68;37.94
70902;BME280;58548;47.210;8.618;2023-12-14T09:54:13;94030.59;;;15.73;38.16
70902;BME280;58548;47.210;8.618;2023-12-14T09:56:49;93963.00;;;15.24;38.07
70902;BME280;58548;47.210;8.618;2023-12-14T09:59:21;94042.59;;;15.68;38.39
70902;BME280;58548;47.210;8.618;2023-12-14T10:01:49;93939.16;;;15.19;38.29
70902;BME280;58548;47.210;8.618;2023-12-14T10:04:17;94030.97;;;15.76;38.36
70902;BME280;58548;47.210;8.618;2023-12-14T10:06:47;93935.16;;;15.16;37.92
70902;BME280;58548;47.210;8.618;2023-12-14T10:09:14;94002.63;;;15.60;38.35
70902;BME280;58548;47.210;8.618;2023-12-14T10:11:44;94029.34;;;15.75;38.16
70902;BME280;58548;47.210;8.618;2023-12-14T10:14:20;94047.78;;;15.75;37.70
70902;BME280;58548;47.210;8.618;2023-12-14T10:16:50;94017.53;;;15.66;38.12
70902;BME280;58548;47.210;8.618;2023-12-14T10:19:16;94032.41;;;15.72;38.35
70902;BME280;58548;47.210;8.618;2023-12-14T10:21:46;94011.53;;;15.59;37.95
70902;BME280;58548;47.210;8.618;2023-12-14T10:24:13;94051.06;;;15.89;38.35
70902;BME280;58548;47.210;8.618;2023-12-14T10:26:40;93920.16;;;15.17;38.04
70902;BME280;58548;47.210;8.618;2023-12-14T10:29:08;93966.13;;;15.33;38.17
70902;BME280;58548;47.210;8.618;2023-12-14T10:31:39;93976.03;;;15.49;38.29
70902;BME280;58548;47.210;8.618;2023-12-14T10:34:05;94051.13;;;16.01;38.47
70902;BME280;58548;47.210;8.618;2023-12-14T10:36:32;93953.34;;;15.48;38.21
70902;BME280;58548;47.210;8.618;2023-12-14T10:39:01;94021.09;;;15.90;38.04
70902;BME280;58548;47.210;8.618;2023-12-14T10:41:27;94053.44;;;16.09;37.65
70902;BME280;58548;47.210;8.618;2023-12-14T10:44:00;93946.59;;;15.41;38.52
70902;BME280;58548;47.210;8.618;2023-12-14T10:46:27;93942.47;;;15.45;38.27
70902;BME280;58548;47.210;8.618;2023-12-14T10:48:56;93951.59;;;15.61;38.40
70902;BME280;58548;47.210;8.618;2023-12-14T10:51:27;94051.88;;;16.32;38.06
70902;BME280;58548;47.210;8.618;2023-12-14T10:54:00;93961.81;;;15.81;37.98
70902;BME280;58548;47.210;8.618;2023-12-14T10:56:26;93943.25;;;15.64;38.14
70902;BME280;58548;47.210;8.618;2023-12-14T10:58:58;93953.81;;;15.76;38.21
70902;BME280;58548;47.210;8.618;2023-12-14T11:01:32;93959.16;;;15.88;37.75
70902;BME280;58548;47.210;8.618;2023-12-14T11:04:00;94083.13;;;16.71;37.63
70902;BME280;58548;47.210;8.618;2023-12-14T11:06:31;93976.38;;;16.14;36.95
70902;BME280;58548;47.210;8.618;2023-12-14T11:09:03;94095.28;;;16.84;37.35
70902;BME280;58548;47.210;8.618;2023-12-14T11:14:12;94008.09;;;16.31;37.06
70902;BME280;58548;47.210;8.618;2023-12-14T11:16:44;94043.91;;;16.51;37.55
70902;BME280;58548;47.210;8.618;2023-12-14T11:24:23;94011.09;;;16.23;36.38
70902;BME280;58548;47.210;8.618;2023-12-14T11:26:50;94066.50;;;16.58;36.25
70902;BME280;58548;47.210;8.618;2023-12-14T11:29:19;94008.31;;;16.18;36.72
70902;BME280;58548;47.210;8.618;2023-12-14T11:31:50;94128.78;;;16.71;36.58
70902;BME280;58548;47.210;8.618;2023-12-14T11:34:16;94029.16;;;16.07;36.69
70902;BME280;58548;47.210;8.618;2023-12-14T11:36:48;94121.19;;;16.63;36.62
70902;BME280;58548;47.210;8.618;2023-12-14T11:39:14;94120.00;;;16.59;36.82
70902;BME280;58548;47.210;8.618;2023-12-14T11:41:58;94123.22;;;16.61;36.79
70902;BME280;58548;47.210;8.618;2023-12-14T11:44:27;94132.84;;;16.55;36.55
70902;BME280;58548;47.210;8.618;2023-12-14T11:46:53;94104.97;;;16.36;37.53
70902;BME280;58548;47.210;8.618;2023-12-14T11:49:19;94121.97;;;16.52;37.62
70902;BME280;58548;47.210;8.618;2023-12-14T11:51:46;94006.47;;;15.76;37.31
70902;BME280;58548;47.210;8.618;2023-12-14T11:54:15;94029.78;;;15.91;37.56
70902;BME280;58548;47.210;8.618;2023-12-14T11:56:49;94133.34;;;16.64;37.26
70902;BME280;58548;47.210;8.618;2023-12-14T11:59:16;94136.22;;;16.63;36.84
70902;BME280;58548;47.210;8.618;2023-12-14T12:01:59;94016.66;;;15.84;36.98
70902;BME280;58548;47.210;8.618;2023-12-14T12:04:30;94016.63;;;15.72;37.13
70902;BME280;58548;47.210;8.618;2023-12-14T12:07:05;94110.00;;;16.37;37.18
70902;BME280;58548;47.210;8.618;2023-12-14T12:09:42;94139.50;;;16.58;37.15
70902;BME280;58548;47.210;8.618;2023-12-14T12:12:12;94147.06;;;16.54;37.83
70902;BME280;58548;47.210;8.618;2023-12-14T12:14:43;94120.41;;;16.32;37.70
70902;BME280;58548;47.210;8.618;2023-12-14T12:17:09;94042.50;;;15.75;38.24
70902;BME280;58548;47.210;8.618;2023-12-14T12:19:37;94035.97;;;15.66;38.13
70902;BME280;58548;47.210;8.618;2023-12-14T12:22:04;94134.38;;;16.33;37.88
70902;BME280;58548;47.210;8.618;2023-12-14T12:24:30;94155.28;;;16.46;37.62
70902;BME280;58548;47.210;8.618;2023-12-14T12:27:01;94159.44;;;16.54;37.92
70902;BME280;58548;47.210;8.618;2023-12-14T12:29:27;94158.63;;;16.53;38.01
70902;BME280;58548;47.210;8.618;2023-12-14T12:31:53;94165.72;;;16.53;37.94
70902;BME280;58548;47.210;8.618;2023-12-14T12:34:18;94164.78;;;16.47;37.71
70902;BME280;58548;47.210;8.618;2023-12-14T12:36:45;94172.59;;;16.54;37.82
70902;BME280;58548;47.210;8.618;2023-12-14T12:39:13;94053.97;;;15.81;37.81
70902;BME280;58548;47.210;8.618;2023-12-14T12:41:40;94158.88;;;16.52;37.98
70902;BME280;58548;47.210;8.618;2023-12-14T12:44:06;94174.31;;;16.48;37.95
70902;BME280;58548;47.210;8.618;2023-12-14T12:46:35;94051.28;;;15.69;37.94
70902;BME280;58548;47.210;8.618;2023-12-14T12:49:02;94177.31;;;16.52;38.04
70902;BME280;58548;47.210;8.618;2023-12-14T12:51:31;94171.22;;;16.51;37.96
70902;BME280;58548;47.210;8.618;2023-12-14T12:54:00;94179.81;;;16.47;38.30
70902;BME280;58548;47.210;8.618;2023-12-14T12:56:29;94157.63;;;16.24;38.31
70902;BME280;58548;47.210;8.618;2023-12-14T12:59:00;94170.34;;;16.27;38.33
70902;BME280;58548;47.210;8.618;2023-12-14T13:01:25;94167.13;;;16.25;37.83
70902;BME280;58548;47.210;8.618;2023-12-14T13:03:55;94131.94;;;16.01;38.30
70902;BME280;58548;47.210;8.618;2023-12-14T13:06:26;94160.25;;;16.24;38.04
70902;BME280;58548;47.210;8.618;2023-12-14T13:08:52;94127.22;;;16.09;38.18
70902;BME280;58548;47.210;8.618;2023-12-14T13:11:18;94193.59;;;16.49;38.05